sensor_id;sensor_type;location;lat;lon;timestamp;pressure;altitude;pressure_sealevel;temperature;humidity
74958;BME280;63741;42.624;26.276;2023-01-04T00:01:18;100677.03;;;2.80;77.25
74958;BME280;63741;42.624;26.276;2023-01-04T00:03:45;100685.94;;;3.04;76.05
74958;BME280;63741;42.624;26.276;2023-01-04T00:06:14;100686.03;;;2.70;76.96
74958;BME280;63741;42.624;26.276;2023-01-04T00:08:42;100686.22;;;2.93;76.41
74958;BME280;63741;42.624;26.276;2023-01-04T00:11:17;100688.16;;;3.16;75.33
74958;BME280;63741;42.624;26.276;2023-01-04T00:13:46;100694.78;;;2.98;76.01
74958;BME280;63741;42.624;26.276;2023-01-04T00:16:17;100684.84;;;2.82;76.35
74958;BME280;63741;42.624;26.276;2023-01-04T00:18:45;100684.16;;;2.75;77.17
74958;BME280;63741;42.624;26.276;2023-01-04T00:21:17;100685.38;;;2.93;77.13
74958;BME280;63741;42.624;26.276;2023-01-04T00:23:46;100682.03;;;2.88;77.75
74958;BME280;63741;42.624;26.276;2023-01-04T00:26:16;100688.94;;;2.90;76.60
74958;BME280;63741;42.624;26.276;2023-01-04T00:28:44;100698.03;;;3.07;76.93
74958;BME280;63741;42.624;26.276;2023-01-04T00:31:19;100695.41;;;3.07;76.28
74958;BME280;63741;42.624;26.276;2023-01-04T00:33:47;100693.72;;;3.06;76.21
74958;BME280;63741;42.624;26.276;2023-01-04T00:36:14;100691.16;;;3.04;75.69
74958;BME280;63741;42.624;26.276;2023-01-04T00:38:42;100697.13;;;3.08;77.11
74958;BME280;63741;42.624;26.276;2023-01-04T00:41:10;100705.75;;;3.11;76.10
74958;BME280;63741;42.624;26.276;2023-01-04T00:43:57;100696.19;;;3.10;75.92
74958;BME280;63741;42.624;26.276;2023-01-04T00:46:25;100690.81;;;3.15;75.73
74958;BME280;63741;42.624;26.276;2023-01-04T00:48:52;100697.19;;;3.06;76.39
74958;BME280;63741;42.624;26.276;2023-01-04T00:51:27;100702.19;;;3.14;76.18
74958;BME280;63741;42.624;26.276;2023-01-04T00:53:54;100705.47;;;3.20;75.76
74958;BME280;63741;42.624;26.276;2023-01-04T00:56:22;100703.63;;;3.24;75.43
74958;BME280;63741;42.624;26.276;2023-01-04T00:58:53;100705.28;;;2.97;76.68
74958;BME280;63741;42.624;26.276;2023-01-04T01:01:19;100708.84;;;2.94;76.52
74958;BME280;63741;42.624;26.276;2023-01-04T01:03:47;100709.09;;;2.87;76.80
74958;BME280;63741;42.624;26.276;2023-01-04T01:06:14;100718.56;;;2.91;76.48
74958;BME280;63741;42.624;26.276;2023-01-04T01:08:40;100709.53;;;3.01;76.39
74958;BME280;63741;42.624;26.276;2023-01-04T01:11:08;100717.06;;;2.81;76.57
74958;BME280;63741;42.624;26.276;2023-01-04T01:13:36;100707.34;;;2.86;75.88
74958;BME280;63741;42.624;26.276;2023-01-04T01:16:06;100712.81;;;2.78;76.29
74958;BME280;63741;42.624;26.276;2023-01-04T01:18:34;100712.03;;;2.74;77.00
74958;BME280;63741;42.624;26.276;2023-01-04T01:21:05;100711.69;;;2.87;76.49
74958;BME280;63741;42.624;26.276;2023-01-04T01:23:33;100703.84;;;2.87;75.26
74958;BME280;63741;42.624;26.276;2023-01-04T01:26:01;100713.41;;;2.88;75.78
74958;BME280;63741;42.624;26.276;2023-01-04T01:28:29;100714.97;;;2.64;77.16
74958;BME280;63741;42.624;26.276;2023-01-04T01:30:56;100702.56;;;2.70;76.06
74958;BME280;63741;42.624;26.276;2023-01-04T01:33:38;100710.91;;;2.19;77.80
74958;BME280;63741;42.624;26.276;2023-01-04T01:36:06;100712.81;;;2.47;77.38
74958;BME280;63741;42.624;26.276;2023-01-04T01:38:33;100697.44;;;2.35;75.88
74958;BME280;63741;42.624;26.276;2023-01-04T01:41:00;100707.34;;;2.23;77.75
74958;BME280;63741;42.624;26.276;2023-01-04T01:46:13;100695.69;;;2.35;76.82
74958;BME280;63741;42.624;26.276;2023-01-04T01:48:41;100697.69;;;2.58;76.40
74958;BME280;63741;42.624;26.276;2023-01-04T01:51:09;100706.38;;;2.59;75.41
74958;BME280;63741;42.624;26.276;2023-01-04T01:53:39;100706.34;;;2.60;76.38
74958;BME280;63741;42.624;26.276;2023-01-04T01:56:10;100700.00;;;2.69;75.26
74958;BME280;63741;42.624;26.276;2023-01-04T01:58:39;100693.03;;;2.68;75.06
74958;BME280;63741;42.624;26.276;2023-01-04T02:01:09;100693.94;;;2.68;74.95
74958;BME280;63741;42.624;26.276;2023-01-04T02:03:41;100689.38;;;2.75;74.79
74958;BME280;63741;42.624;26.276;2023-01-04T02:06:14;100699.44;;;2.58;75.56
74958;BME280;63741;42.624;26.276;2023-01-04T02:08:43;100694.94;;;2.63;74.78
74958;BME280;63741;42.624;26.276;2023-01-04T02:11:11;100702.56;;;2.39;75.11
74958;BME280;63741;42.624;26.276;2023-01-04T02:13:38;100695.44;;;2.44;74.04
74958;BME280;63741;42.624;26.276;2023-01-04T02:16:28;100703.94;;;2.52;74.00
74958;BME280;63741;42.624;26.276;2023-01-04T02:33:14;100700.00;;;2.38;74.40
74958;BME280;63741;42.624;26.276;2023-01-04T02:36:16;100711.97;;;2.45;73.65
74958;BME280;63741;42.624;26.276;2023-01-04T02:44:16;100713.72;;;2.44;74.39
74958;BME280;63741;42.624;26.276;2023-01-04T02:47:07;100718.09;;;2.44;74.47
74958;BME280;63741;42.624;26.276;2023-01-04T02:49:35;100709.47;;;2.40;74.52
74958;BME280;63741;42.624;26.276;2023-01-04T02:52:29;100707.78;;;2.39;74.97
74958;BME280;63741;42.624;26.276;2023-01-04T02:54:56;100709.22;;;2.51;74.58
74958;BME280;63741;42.624;26.276;2023-01-04T02:57:34;100700.28;;;2.60;73.66
74958;BME280;63741;42.624;26.276;2023-01-04T03:11:46;100685.78;;;2.15;75.80
74958;BME280;63741;42.624;26.276;2023-01-04T03:14:40;100690.06;;;2.18;75.55
74958;BME280;63741;42.624;26.276;2023-01-04T03:17:12;100695.94;;;2.26;74.83
74958;BME280;63741;42.624;26.276;2023-01-04T03:19:41;100683.91;;;2.20;74.85
74958;BME280;63741;42.624;26.276;2023-01-04T03:22:36;100700.38;;;2.24;74.62
74958;BME280;63741;42.624;26.276;2023-01-04T03:25:27;100694.50;;;2.14;75.05
74958;BME280;63741;42.624;26.276;2023-01-04T03:28:16;100697.09;;;2.14;75.42
74958;BME280;63741;42.624;26.276;2023-01-04T03:31:20;100699.00;;;1.75;75.30
74958;BME280;63741;42.624;26.276;2023-01-04T03:34:06;100702.91;;;1.91;75.79
74958;BME280;63741;42.624;26.276;2023-01-04T03:43:08;100691.28;;;1.70;74.85
74958;BME280;63741;42.624;26.276;2023-01-04T03:48:59;100709.09;;;1.89;76.53
74958;BME280;63741;42.624;26.276;2023-01-04T03:51:31;100700.59;;;1.81;75.66
74958;BME280;63741;42.624;26.276;2023-01-04T03:54:14;100690.94;;;1.83;75.22
74958;BME280;63741;42.624;26.276;2023-01-04T03:56:44;100693.56;;;1.83;74.63
74958;BME280;63741;42.624;26.276;2023-01-04T03:59:13;100708.00;;;1.62;75.67
74958;BME280;63741;42.624;26.276;2023-01-04T04:01:42;100698.03;;;1.77;75.76
74958;BME280;63741;42.624;26.276;2023-01-04T04:04:10;100708.69;;;1.68;76.40
74958;BME280;63741;42.624;26.276;2023-01-04T04:06:56;100700.84;;;1.70;75.98
74958;BME280;63741;42.624;26.276;2023-01-04T04:09:41;100717.34;;;1.70;75.96
74958;BME280;63741;42.624;26.276;2023-01-04T04:12:08;100706.88;;;1.72;76.38
74958;BME280;63741;42.624;26.276;2023-01-04T04:14:35;100705.88;;;1.77;75.61
74958;BME280;63741;42.624;26.276;2023-01-04T04:17:02;100710.91;;;1.85;76.05
74958;BME280;63741;42.624;26.276;2023-01-04T04:19:29;100725.75;;;1.83;75.35
74958;BME280;63741;42.624;26.276;2023-01-04T04:21:56;100717.69;;;1.92;75.62
74958;BME280;63741;42.624;26.276;2023-01-04T04:24:25;100711.97;;;1.76;75.83
74958;BME280;63741;42.624;26.276;2023-01-04T04:26:53;100729.09;;;1.88;75.95
74958;BME280;63741;42.624;26.276;2023-01-04T04:29:21;100731.19;;;1.72;76.15
74958;BME280;63741;42.624;26.276;2023-01-04T04:31:49;100735.81;;;1.61;76.65
74958;BME280;63741;42.624;26.276;2023-01-04T04:34:16;100731.41;;;1.63;77.00
74958;BME280;63741;42.624;26.276;2023-01-04T04:36:43;100734.53;;;1.79;76.09
74958;BME280;63741;42.624;26.276;2023-01-04T04:39:10;100736.81;;;1.93;75.50
74958;BME280;63741;42.624;26.276;2023-01-04T04:41:38;100745.50;;;1.92;75.68
74958;BME280;63741;42.624;26.276;2023-01-04T04:44:09;100742.94;;;1.90;75.68
74958;BME280;63741;42.624;26.276;2023-01-04T04:46:37;100735.22;;;1.86;75.82
74958;BME280;63741;42.624;26.276;2023-01-04T04:49:04;100733.47;;;1.88;76.09
74958;BME280;63741;42.624;26.276;2023-01-04T04:51:31;100736.50;;;1.31;78.69
74958;BME280;63741;42.624;26.276;2023-01-04T04:53:58;100752.22;;;1.66;76.96
74958;BME280;63741;42.624;26.276;2023-01-04T04:56:25;100744.25;;;1.72;76.65
74958;BME280;63741;42.624;26.276;2023-01-04T04:58:52;100739.75;;;1.79;76.02
74958;BME280;63741;42.624;26.276;2023-01-04T05:01:19;100752.00;;;1.75;76.34
74958;BME280;63741;42.624;26.276;2023-01-04T05:03:46;100739.66;;;1.82;76.42
74958;BME280;63741;42.624;26.276;2023-01-04T05:06:14;100757.50;;;1.63;74.88
74958;BME280;63741;42.624;26.276;2023-01-04T05:08:41;100743.78;;;1.55;75.32
74958;BME280;63741;42.624;26.276;2023-01-04T05:11:11;100756.91;;;1.52;75.64
74958;BME280;63741;42.624;26.276;2023-01-04T05:13:38;100751.22;;;1.33;77.02
74958;BME280;63741;42.624;26.276;2023-01-04T05:16:07;100745.69;;;1.47;76.62
74958;BME280;63741;42.624;26.276;2023-01-04T05:18:34;100756.59;;;1.66;75.18
74958;BME280;63741;42.624;26.276;2023-01-04T05:21:01;100754.41;;;1.47;74.80
74958;BME280;63741;42.624;26.276;2023-01-04T05:23:28;100774.91;;;1.22;76.27
74958;BME280;63741;42.624;26.276;2023-01-04T05:25:58;100763.34;;;1.36;75.05
74958;BME280;63741;42.624;26.276;2023-01-04T05:28:26;100761.97;;;1.18;75.62
74958;BME280;63741;42.624;26.276;2023-01-04T05:30:53;100751.34;;;1.27;74.84
74958;BME280;63741;42.624;26.276;2023-01-04T05:33:23;100762.13;;;1.10;75.10
74958;BME280;63741;42.624;26.276;2023-01-04T05:35:52;100762.06;;;1.13;74.84
74958;BME280;63741;42.624;26.276;2023-01-04T05:38:20;100769.41;;;0.93;74.99
74958;BME280;63741;42.624;26.276;2023-01-04T05:40:47;100768.03;;;1.18;74.45
74958;BME280;63741;42.624;26.276;2023-01-04T05:43:15;100780.41;;;1.07;75.16
74958;BME280;63741;42.624;26.276;2023-01-04T05:45:45;100776.94;;;1.08;75.38
74958;BME280;63741;42.624;26.276;2023-01-04T05:48:13;100773.22;;;0.77;74.89
74958;BME280;63741;42.624;26.276;2023-01-04T05:50:40;100784.50;;;0.75;76.68
74958;BME280;63741;42.624;26.276;2023-01-04T05:53:08;100781.81;;;0.82;76.57
74958;BME280;63741;42.624;26.276;2023-01-04T05:55:35;100786.69;;;0.98;74.49
74958;BME280;63741;42.624;26.276;2023-01-04T05:58:02;100779.41;;;1.14;74.60
74958;BME280;63741;42.624;26.276;2023-01-04T06:00:30;100787.56;;;0.99;75.83
74958;BME280;63741;42.624;26.276;2023-01-04T06:02:57;100786.31;;;1.17;74.72
74958;BME280;63741;42.624;26.276;2023-01-04T06:05:24;100803.09;;;1.02;75.48
74958;BME280;63741;42.624;26.276;2023-01-04T06:07:52;100797.88;;;1.02;75.24
74958;BME280;63741;42.624;26.276;2023-01-04T06:10:19;100798.06;;;0.94;74.37
74958;BME280;63741;42.624;26.276;2023-01-04T06:12:46;100803.38;;;0.88;76.66
74958;BME280;63741;42.624;26.276;2023-01-04T06:15:14;100807.97;;;0.74;76.30
74958;BME280;63741;42.624;26.276;2023-01-04T06:17:41;100820.66;;;0.92;76.58
74958;BME280;63741;42.624;26.276;2023-01-04T06:20:09;100823.66;;;1.17;74.76
74958;BME280;63741;42.624;26.276;2023-01-04T06:22:36;100817.69;;;1.12;75.42
74958;BME280;63741;42.624;26.276;2023-01-04T06:25:07;100819.00;;;0.90;75.27
74958;BME280;63741;42.624;26.276;2023-01-04T06:27:34;100820.16;;;1.18;75.83
74958;BME280;63741;42.624;26.276;2023-01-04T06:30:02;100819.84;;;0.89;76.07
74958;BME280;63741;42.624;26.276;2023-01-04T06:32:29;100819.50;;;1.09;76.63
74958;BME280;63741;42.624;26.276;2023-01-04T06:34:56;100827.59;;;1.37;75.07
74958;BME280;63741;42.624;26.276;2023-01-04T06:37:23;100828.91;;;1.58;73.43
74958;BME280;63741;42.624;26.276;2023-01-04T06:39:50;100826.19;;;1.62;73.48
74958;BME280;63741;42.624;26.276;2023-01-04T06:42:17;100829.91;;;1.50;73.29
74958;BME280;63741;42.624;26.276;2023-01-04T06:45:05;100837.44;;;1.22;75.43
74958;BME280;63741;42.624;26.276;2023-01-04T06:47:32;100834.00;;;1.20;75.35
74958;BME280;63741;42.624;26.276;2023-01-04T06:49:59;100840.34;;;1.09;76.44
74958;BME280;63741;42.624;26.276;2023-01-04T06:52:26;100838.25;;;0.80;77.40
74958;BME280;63741;42.624;26.276;2023-01-04T06:54:53;100833.56;;;1.43;76.16
74958;BME280;63741;42.624;26.276;2023-01-04T06:57:20;100847.41;;;1.45;76.63
74958;BME280;63741;42.624;26.276;2023-01-04T06:59:47;100849.03;;;1.51;75.66
74958;BME280;63741;42.624;26.276;2023-01-04T07:02:14;100846.34;;;1.11;77.00
74958;BME280;63741;42.624;26.276;2023-01-04T07:04:42;100850.44;;;1.24;76.55
74958;BME280;63741;42.624;26.276;2023-01-04T07:07:09;100855.47;;;1.33;76.83
74958;BME280;63741;42.624;26.276;2023-01-04T07:09:37;100864.66;;;1.51;75.61
74958;BME280;63741;42.624;26.276;2023-01-04T07:12:04;100869.00;;;1.52;74.99
74958;BME280;63741;42.624;26.276;2023-01-04T07:14:31;100863.09;;;1.44;74.78
74958;BME280;63741;42.624;26.276;2023-01-04T07:16:58;100868.72;;;1.64;74.36
74958;BME280;63741;42.624;26.276;2023-01-04T07:19:25;100868.22;;;1.89;74.08
74958;BME280;63741;42.624;26.276;2023-01-04T07:21:52;100872.16;;;2.07;73.37
74958;BME280;63741;42.624;26.276;2023-01-04T07:24:19;100874.84;;;2.03;73.86
74958;BME280;63741;42.624;26.276;2023-01-04T07:26:53;100873.63;;;2.18;72.81
74958;BME280;63741;42.624;26.276;2023-01-04T07:29:20;100868.78;;;2.03;73.24
74958;BME280;63741;42.624;26.276;2023-01-04T07:31:49;100871.69;;;2.26;73.17
74958;BME280;63741;42.624;26.276;2023-01-04T07:34:18;100878.28;;;2.43;72.53
74958;BME280;63741;42.624;26.276;2023-01-04T07:36:47;100872.47;;;2.66;72.13
74958;BME280;63741;42.624;26.276;2023-01-04T07:39:15;100872.31;;;2.72;72.46
74958;BME280;63741;42.624;26.276;2023-01-04T07:41:43;100868.66;;;2.79;71.69
74958;BME280;63741;42.624;26.276;2023-01-04T07:44:13;100868.59;;;2.82;71.70
74958;BME280;63741;42.624;26.276;2023-01-04T07:46:40;100857.16;;;2.86;71.39
74958;BME280;63741;42.624;26.276;2023-01-04T07:49:13;100858.81;;;2.89;71.47
74958;BME280;63741;42.624;26.276;2023-01-04T07:51:47;100856.75;;;3.01;72.10
74958;BME280;63741;42.624;26.276;2023-01-04T07:54:15;100861.41;;;3.21;71.18
74958;BME280;63741;42.624;26.276;2023-01-04T07:56:44;100872.66;;;3.56;70.29
74958;BME280;63741;42.624;26.276;2023-01-04T07:59:12;100872.25;;;3.70;69.57
74958;BME280;63741;42.624;26.276;2023-01-04T08:01:39;100873.34;;;4.20;68.04
74958;BME280;63741;42.624;26.276;2023-01-04T08:04:07;100869.03;;;4.72;66.77
74958;BME280;63741;42.624;26.276;2023-01-04T08:06:36;100869.22;;;4.93;66.14
74958;BME280;63741;42.624;26.276;2023-01-04T08:09:04;100877.97;;;5.17;65.85
74958;BME280;63741;42.624;26.276;2023-01-04T08:11:32;100869.63;;;4.80;67.16
74958;BME280;63741;42.624;26.276;2023-01-04T08:13:59;100872.31;;;5.04;67.30
74958;BME280;63741;42.624;26.276;2023-01-04T08:16:29;100887.81;;;4.85;68.56
74958;BME280;63741;42.624;26.276;2023-01-04T08:19:01;100882.81;;;4.77;68.64
74958;BME280;63741;42.624;26.276;2023-01-04T08:21:30;100877.47;;;5.30;66.37
74958;BME280;63741;42.624;26.276;2023-01-04T08:23:57;100868.44;;;6.10;66.33
74958;BME280;63741;42.624;26.276;2023-01-04T08:26:25;100873.75;;;6.08;63.32
74958;BME280;63741;42.624;26.276;2023-01-04T08:28:53;100874.22;;;6.82;62.21
74958;BME280;63741;42.624;26.276;2023-01-04T08:31:22;100874.34;;;7.40;61.02
74958;BME280;63741;42.624;26.276;2023-01-04T08:33:49;100880.00;;;7.70;60.31
74958;BME280;63741;42.624;26.276;2023-01-04T08:38:58;100882.19;;;8.36;59.33
74958;BME280;63741;42.624;26.276;2023-01-04T08:41:32;100873.63;;;8.50;58.61
74958;BME280;63741;42.624;26.276;2023-01-04T08:44:21;100879.13;;;8.45;59.07
74958;BME280;63741;42.624;26.276;2023-01-04T08:46:50;100874.34;;;9.05;57.81
74958;BME280;63741;42.624;26.276;2023-01-04T08:49:17;100868.66;;;9.13;57.36
74958;BME280;63741;42.624;26.276;2023-01-04T08:51:44;100871.34;;;9.62;56.65
74958;BME280;63741;42.624;26.276;2023-01-04T08:54:12;100881.81;;;9.97;55.29
74958;BME280;63741;42.624;26.276;2023-01-04T08:56:39;100877.63;;;9.93;55.47
74958;BME280;63741;42.624;26.276;2023-01-04T08:59:06;100868.69;;;10.43;54.79
74958;BME280;63741;42.624;26.276;2023-01-04T09:01:35;100870.47;;;10.42;54.22
74958;BME280;63741;42.624;26.276;2023-01-04T09:04:02;100867.63;;;10.61;54.20
74958;BME280;63741;42.624;26.276;2023-01-04T09:06:29;100854.66;;;10.56;54.84
74958;BME280;63741;42.624;26.276;2023-01-04T09:08:57;100852.78;;;10.58;54.91
74958;BME280;63741;42.624;26.276;2023-01-04T09:11:25;100865.41;;;10.83;54.76
74958;BME280;63741;42.624;26.276;2023-01-04T09:13:57;100859.44;;;10.80;53.66
74958;BME280;63741;42.624;26.276;2023-01-04T09:16:33;100854.03;;;11.11;54.28
74958;BME280;63741;42.624;26.276;2023-01-04T09:19:01;100849.13;;;11.20;53.82
74958;BME280;63741;42.624;26.276;2023-01-04T09:21:28;100849.03;;;11.50;53.48
74958;BME280;63741;42.624;26.276;2023-01-04T09:23:58;100843.47;;;11.40;53.30
74958;BME280;63741;42.624;26.276;2023-01-04T09:26:25;100842.91;;;11.35;53.86
74958;BME280;63741;42.624;26.276;2023-01-04T09:28:54;100848.56;;;11.72;52.79
74958;BME280;63741;42.624;26.276;2023-01-04T09:31:26;100841.75;;;11.68;52.99
74958;BME280;63741;42.624;26.276;2023-01-04T09:33:55;100840.25;;;11.49;54.39
74958;BME280;63741;42.624;26.276;2023-01-04T09:36:42;100832.00;;;11.97;53.36
74958;BME280;63741;42.624;26.276;2023-01-04T09:39:09;100829.72;;;12.18;52.24
74958;BME280;63741;42.624;26.276;2023-01-04T09:41:54;100821.88;;;12.16;52.97
74958;BME280;63741;42.624;26.276;2023-01-04T09:44:26;100823.81;;;11.30;54.58
74958;BME280;63741;42.624;26.276;2023-01-04T09:47:32;100822.50;;;10.48;56.41
74958;BME280;63741;42.624;26.276;2023-01-04T09:50:08;100818.88;;;9.72;59.48
74958;BME280;63741;42.624;26.276;2023-01-04T09:53:01;100820.75;;;9.70;59.57
74958;BME280;63741;42.624;26.276;2023-01-04T09:55:42;100809.94;;;9.74;60.03
74958;BME280;63741;42.624;26.276;2023-01-04T09:58:33;100811.63;;;9.75;59.39
74958;BME280;63741;42.624;26.276;2023-01-04T10:01:04;100813.59;;;9.56;61.30
74958;BME280;63741;42.624;26.276;2023-01-04T10:03:37;100823.13;;;9.58;62.18
74958;BME280;63741;42.624;26.276;2023-01-04T10:06:09;100813.00;;;9.67;60.27
74958;BME280;63741;42.624;26.276;2023-01-04T10:08:39;100812.97;;;9.51;63.11
74958;BME280;63741;42.624;26.276;2023-01-04T10:11:19;100802.66;;;9.46;64.04
74958;BME280;63741;42.624;26.276;2023-01-04T10:33:11;100777.63;;;9.85;63.70
74958;BME280;63741;42.624;26.276;2023-01-04T10:35:41;100782.56;;;9.91;63.98
74958;BME280;63741;42.624;26.276;2023-01-04T10:38:15;100785.44;;;9.55;65.29
74958;BME280;63741;42.624;26.276;2023-01-04T10:40:46;100788.34;;;9.82;65.70
74958;BME280;63741;42.624;26.276;2023-01-04T10:49:14;100791.56;;;10.34;63.71
74958;BME280;63741;42.624;26.276;2023-01-04T10:51:48;100785.00;;;10.56;62.86
74958;BME280;63741;42.624;26.276;2023-01-04T10:54:32;100795.75;;;10.97;62.20
74958;BME280;63741;42.624;26.276;2023-01-04T10:57:16;100790.00;;;11.19;61.17
74958;BME280;63741;42.624;26.276;2023-01-04T10:59:55;100789.09;;;11.34;61.69
74958;BME280;63741;42.624;26.276;2023-01-04T11:05:21;100778.88;;;12.38;58.00
74958;BME280;63741;42.624;26.276;2023-01-04T11:08:04;100777.78;;;12.93;56.92
74958;BME280;63741;42.624;26.276;2023-01-04T11:13:17;100775.44;;;12.76;56.95
74958;BME280;63741;42.624;26.276;2023-01-04T11:15:45;100774.22;;;12.54;57.16
74958;BME280;63741;42.624;26.276;2023-01-04T11:18:13;100765.28;;;12.30;58.62
74958;BME280;63741;42.624;26.276;2023-01-04T11:20:41;100768.84;;;12.16;59.63
74958;BME280;63741;42.624;26.276;2023-01-04T11:25:46;100757.44;;;12.28;61.14
74958;BME280;63741;42.624;26.276;2023-01-04T11:28:26;100758.72;;;12.08;61.44
74958;BME280;63741;42.624;26.276;2023-01-04T11:31:02;100751.31;;;12.13;60.47
74958;BME280;63741;42.624;26.276;2023-01-04T11:33:56;100753.47;;;12.86;58.40
74958;BME280;63741;42.624;26.276;2023-01-04T11:38:58;100741.66;;;13.65;54.93
74958;BME280;63741;42.624;26.276;2023-01-04T11:41:26;100736.44;;;13.40;55.81
74958;BME280;63741;42.624;26.276;2023-01-04T11:44:02;100751.09;;;13.46;56.93
74958;BME280;63741;42.624;26.276;2023-01-04T11:46:31;100744.78;;;13.83;55.20
74958;BME280;63741;42.624;26.276;2023-01-04T11:48:58;100742.13;;;14.07;53.76
74958;BME280;63741;42.624;26.276;2023-01-04T11:54:18;100744.56;;;13.62;55.41
74958;BME280;63741;42.624;26.276;2023-01-04T11:57:06;100730.97;;;13.54;55.99
74958;BME280;63741;42.624;26.276;2023-01-04T11:59:43;100736.13;;;13.32;57.08
74958;BME280;63741;42.624;26.276;2023-01-04T12:05:15;100728.41;;;12.78;58.92
74958;BME280;63741;42.624;26.276;2023-01-04T12:07:51;100734.97;;;12.59;58.28
74958;BME280;63741;42.624;26.276;2023-01-04T12:10:23;100731.66;;;12.43;59.83
74958;BME280;63741;42.624;26.276;2023-01-04T12:12:54;100738.75;;;12.30;60.16
74958;BME280;63741;42.624;26.276;2023-01-04T12:15:36;100742.66;;;12.24;61.02
74958;BME280;63741;42.624;26.276;2023-01-04T12:18:20;100731.91;;;12.13;61.36
74958;BME280;63741;42.624;26.276;2023-01-04T12:20:48;100728.41;;;11.85;62.29
74958;BME280;63741;42.624;26.276;2023-01-04T12:23:15;100719.78;;;11.82;62.75
74958;BME280;63741;42.624;26.276;2023-01-04T12:25:50;100732.56;;;11.89;62.62
74958;BME280;63741;42.624;26.276;2023-01-04T12:28:36;100730.44;;;11.68;63.06
74958;BME280;63741;42.624;26.276;2023-01-04T12:33:47;100729.03;;;11.62;63.27
74958;BME280;63741;42.624;26.276;2023-01-04T12:36:17;100727.81;;;11.53;63.61
74958;BME280;63741;42.624;26.276;2023-01-04T12:41:22;100725.22;;;11.25;63.58
74958;BME280;63741;42.624;26.276;2023-01-04T12:43:49;100733.16;;;11.39;63.61
74958;BME280;63741;42.624;26.276;2023-01-04T12:55:00;100721.34;;;11.30;64.03
74958;BME280;63741;42.624;26.276;2023-01-04T12:57:30;100736.19;;;11.33;64.32
74958;BME280;63741;42.624;26.276;2023-01-04T13:00:12;100734.97;;;11.24;64.72
74958;BME280;63741;42.624;26.276;2023-01-04T13:02:41;100748.88;;;11.13;65.30
74958;BME280;63741;42.624;26.276;2023-01-04T13:08:10;100746.31;;;11.41;64.31
74958;BME280;63741;42.624;26.276;2023-01-04T13:10:45;100740.66;;;11.18;64.74
74958;BME280;63741;42.624;26.276;2023-01-04T13:16:19;100749.91;;;11.39;63.69
74958;BME280;63741;42.624;26.276;2023-01-04T13:18:51;100747.84;;;11.30;63.90
74958;BME280;63741;42.624;26.276;2023-01-04T13:21:41;100742.69;;;11.42;63.41
74958;BME280;63741;42.624;26.276;2023-01-04T13:24:21;100737.44;;;11.27;63.87
74958;BME280;63741;42.624;26.276;2023-01-04T13:26:50;100745.75;;;11.21;64.14
74958;BME280;63741;42.624;26.276;2023-01-04T13:29:31;100745.84;;;11.20;64.76
74958;BME280;63741;42.624;26.276;2023-01-04T13:32:07;100747.84;;;11.02;65.36
74958;BME280;63741;42.624;26.276;2023-01-04T13:34:40;100752.84;;;10.92;66.38
74958;BME280;63741;42.624;26.276;2023-01-04T13:37:12;100755.31;;;10.95;66.01
74958;BME280;63741;42.624;26.276;2023-01-04T13:39:48;100756.34;;;11.07;65.13
74958;BME280;63741;42.624;26.276;2023-01-04T13:42:33;100753.22;;;11.00;65.88
74958;BME280;63741;42.624;26.276;2023-01-04T13:47:54;100754.72;;;10.76;67.13
74958;BME280;63741;42.624;26.276;2023-01-04T13:52:49;100759.25;;;10.74;67.47
74958;BME280;63741;42.624;26.276;2023-01-04T13:55:35;100757.44;;;10.60;67.99
74958;BME280;63741;42.624;26.276;2023-01-04T13:58:05;100766.31;;;10.59;67.81
74958;BME280;63741;42.624;26.276;2023-01-04T14:08:40;100774.41;;;10.42;69.13
74958;BME280;63741;42.624;26.276;2023-01-04T14:11:18;100765.63;;;10.41;69.21
74958;BME280;63741;42.624;26.276;2023-01-04T14:14:37;100773.63;;;10.40;69.50
74958;BME280;63741;42.624;26.276;2023-01-04T14:17:22;100776.91;;;10.59;68.60
74958;BME280;63741;42.624;26.276;2023-01-04T14:22:55;100773.97;;;10.49;69.19
74958;BME280;63741;42.624;26.276;2023-01-04T14:30:54;100774.31;;;10.43;70.64
74958;BME280;63741;42.624;26.276;2023-01-04T14:33:36;100773.72;;;10.38;70.68
74958;BME280;63741;42.624;26.276;2023-01-04T14:36:35;100764.09;;;10.37;70.17
74958;BME280;63741;42.624;26.276;2023-01-04T14:41:54;100773.31;;;10.30;70.87
74958;BME280;63741;42.624;26.276;2023-01-04T14:44:25;100777.13;;;10.40;70.13
74958;BME280;63741;42.624;26.276;2023-01-04T14:46:59;100781.38;;;10.43;70.68
74958;BME280;63741;42.624;26.276;2023-01-04T14:49:26;100771.94;;;10.38;70.01
74958;BME280;63741;42.624;26.276;2023-01-04T14:52:00;100781.56;;;10.40;70.09
74958;BME280;63741;42.624;26.276;2023-01-04T14:54:28;100779.28;;;10.33;70.31
74958;BME280;63741;42.624;26.276;2023-01-04T14:56:56;100783.47;;;10.37;69.87
74958;BME280;63741;42.624;26.276;2023-01-04T14:59:24;100786.72;;;10.27;71.19
74958;BME280;63741;42.624;26.276;2023-01-04T15:01:53;100775.28;;;10.10;71.30
74958;BME280;63741;42.624;26.276;2023-01-04T15:04:21;100774.03;;;10.02;71.49
74958;BME280;63741;42.624;26.276;2023-01-04T15:06:58;100779.31;;;10.02;71.50
74958;BME280;63741;42.624;26.276;2023-01-04T15:09:26;100776.66;;;10.02;71.21
74958;BME280;63741;42.624;26.276;2023-01-04T15:11:54;100783.22;;;10.10;70.55
74958;BME280;63741;42.624;26.276;2023-01-04T15:14:22;100787.38;;;10.30;70.03
74958;BME280;63741;42.624;26.276;2023-01-04T15:16:49;100795.75;;;10.23;70.63
74958;BME280;63741;42.624;26.276;2023-01-04T15:19:16;100793.75;;;10.42;69.36
74958;BME280;63741;42.624;26.276;2023-01-04T15:21:43;100798.66;;;10.34;69.63
74958;BME280;63741;42.624;26.276;2023-01-04T15:24:10;100798.56;;;10.20;69.97